No particular awareness of the weather is required.    There are no Weather-warnings


Meteo18 Weather Cam more information Meteo18 Weather Cam


Thunder radar more information blitzortung!


Rain radar more information rain snow radar


Visit our other weather sites:

Template documentation
and downloads

And another site



Weather Underground History page Text

Daily Summary for July 12, 2016 Units:  Metric    English   Both
« Previous Day
Next Day »
Daily Weekly Monthly Yearly Custom
  High: Low: Average:
Temperature: 24.8 °C 13.9 °C 18.5 °C
Dew Point: 15.6 °C 9.9 °C 12.9 °C
Humidity: 94 % 40 % 74 %
Wind Speed: 11.3 km/h 0.0 km/h 1.1 km/h
Wind Gust: 22.5 km/h - -
Wind:- - WSW
Pressure: 1016.1 hPa 1013.4 hPa -
Precipitation: 2.5 mm    
Historical Graphs
 
 
Tabular Data for July 12, 2016
Time Temperature Dew Point Pressure Wind Wind Speed Wind Gust Humidity Rainfall Rate (Hourly)
00:02 17.1 °C 15.3 °C 1015.5 hPa Calm   1.6 km/h 89 % 0.0 mm
00:07 17.1 °C 15.3 °C 1015.5 hPa Calm   1.6 km/h 89 % 0.0 mm
00:12 17.1 °C 15.3 °C 1015.5 hPa Calm   1.6 km/h 89 % 0.0 mm
00:17 17.0 °C 15.3 °C 1015.5 hPa Calm     90 % 0.0 mm
00:22 17.0 °C 15.3 °C 1015.5 hPa Calm   1.6 km/h 90 % 0.0 mm
00:32 17.0 °C 15.3 °C 1015.5 hPa Calm   1.6 km/h 90 % 0.0 mm
00:42 17.0 °C 15.5 °C 1015.5 hPa Calm     91 % 0.0 mm
00:47 17.0 °C 15.5 °C 1015.5 hPa Calm   1.6 km/h 91 % 0.0 mm
00:52 16.9 °C 15.4 °C 1015.5 hPa Calm   1.6 km/h 91 % 0.0 mm
00:57 16.9 °C 15.4 °C 1015.5 hPa Calm   1.6 km/h 91 % 0.0 mm
01:02 16.9 °C 15.4 °C 1015.5 hPa Calm   1.6 km/h 91 % 0.0 mm
01:07 16.9 °C 15.4 °C 1015.5 hPa Calm   1.6 km/h 91 % 0.0 mm
01:12 16.9 °C 15.4 °C 1015.5 hPa Calm   1.6 km/h 91 % 0.0 mm
01:17 16.8 °C 15.5 °C 1015.5 hPa Calm   1.6 km/h 92 % 0.0 mm
01:22 16.8 °C 15.5 °C 1015.5 hPa Calm   1.6 km/h 92 % 0.0 mm
01:27 16.8 °C 15.5 °C 1015.5 hPa Calm   1.6 km/h 92 % 0.0 mm
01:32 16.8 °C 15.5 °C 1015.5 hPa Calm     92 % 0.0 mm
01:37 16.8 °C 15.5 °C 1015.5 hPa Calm     92 % 0.0 mm
01:42 16.8 °C 15.5 °C 1015.5 hPa Calm   1.6 km/h 92 % 0.0 mm
01:47 16.9 °C 15.6 °C 1015.1 hPa Calm   3.2 km/h 92 % 0.0 mm
01:52 16.9 °C 15.6 °C 1015.1 hPa Calm   3.2 km/h 92 % 0.0 mm
01:57 16.9 °C 15.6 °C 1015.1 hPa Calm   1.6 km/h 92 % 0.0 mm
02:02 16.9 °C 15.6 °C 1015.1 hPa Calm   1.6 km/h 92 % 0.0 mm
02:07 16.8 °C 15.5 °C 1015.1 hPa Calm   3.2 km/h 92 % 0.0 mm
02:12 16.8 °C 15.5 °C 1014.8 hPa Calm   3.2 km/h 92 % 0.0 mm
02:17 16.7 °C 15.4 °C 1015.1 hPa WSW 1.6 km/h 3.2 km/h 92 % 0.0 mm
02:27 16.6 °C 15.3 °C 1014.8 hPa Calm   1.6 km/h 92 % 0.0 mm
02:32 16.5 °C 15.0 °C 1014.8 hPa Calm   3.2 km/h 91 % 0.0 mm
02:37 16.4 °C 14.9 °C 1014.8 hPa Calm   3.2 km/h 91 % 0.0 mm
02:42 16.2 °C 14.7 °C 1014.8 hPa Calm   3.2 km/h 91 % 0.0 mm
02:47 16.1 °C 14.8 °C 1014.8 hPa WSW 3.2 km/h 3.2 km/h 92 % 0.0 mm
02:52 16.1 °C 14.8 °C 1014.8 hPa Calm   3.2 km/h 92 % 0.0 mm
02:57 16.0 °C 14.5 °C 1014.8 hPa Calm   3.2 km/h 91 % 0.0 mm
03:02 15.9 °C 14.4 °C 1014.8 hPa Calm   3.2 km/h 91 % 0.0 mm
03:07 15.8 °C 14.5 °C 1014.8 hPa Calm   1.6 km/h 92 % 0.0 mm
03:12 15.8 °C 14.5 °C 1015.1 hPa Calm   1.6 km/h 92 % 0.0 mm
03:17 15.7 °C 14.4 °C 1014.8 hPa Calm   3.2 km/h 92 % 0.0 mm
03:22 15.7 °C 14.2 °C 1014.8 hPa Calm   3.2 km/h 91 % 0.0 mm
03:27 15.7 °C 14.2 °C 1014.8 hPa SW 1.6 km/h 6.4 km/h 91 % 0.0 mm
03:32 15.6 °C 14.1 °C 1014.8 hPa Calm   6.4 km/h 91 % 0.0 mm
03:42 15.4 °C 13.9 °C 1014.8 hPa Calm   3.2 km/h 91 % 0.0 mm
03:47 15.3 °C 13.8 °C 1014.8 hPa Calm   3.2 km/h 91 % 0.0 mm
03:52 15.3 °C 13.8 °C 1014.8 hPa Calm   1.6 km/h 91 % 0.0 mm
03:57 15.1 °C 13.6 °C 1014.8 hPa Calm   1.6 km/h 91 % 0.0 mm
04:02 14.9 °C 13.4 °C 1014.8 hPa Calm     91 % 0.0 mm
04:07 14.7 °C 13.2 °C 1014.8 hPa Calm     91 % 0.0 mm
04:12 14.5 °C 13.2 °C 1014.8 hPa Calm     92 % 0.0 mm
04:22 14.1 °C 12.8 °C 1014.8 hPa Calm     92 % 0.0 mm
04:27 14.0 °C 12.9 °C 1015.1 hPa Calm     93 % 0.0 mm
04:32 13.9 °C 12.8 °C 1015.1 hPa Calm     93 % 0.0 mm
04:37 13.9 °C 12.9 °C 1015.1 hPa Calm     94 % 0.0 mm
04:42 14.0 °C 13.0 °C 1014.8 hPa Calm     94 % 0.0 mm
04:47 14.1 °C 13.1 °C 1014.8 hPa Calm     94 % 0.0 mm
04:52 14.1 °C 13.1 °C 1014.8 hPa Calm     94 % 0.0 mm
04:57 14.1 °C 13.1 °C 1015.1 hPa Calm     94 % 0.0 mm
05:02 14.2 °C 13.2 °C 1015.1 hPa Calm     94 % 0.0 mm
05:07 14.2 °C 13.2 °C 1015.1 hPa Calm     94 % 0.0 mm
05:12 14.2 °C 13.2 °C 1015.1 hPa Calm     94 % 0.0 mm
05:17 14.3 °C 13.3 °C 1015.1 hPa Calm     94 % 0.0 mm
05:22 14.3 °C 13.3 °C 1015.1 hPa Calm     94 % 0.0 mm
05:27 14.3 °C 13.3 °C 1015.1 hPa Calm     94 % 0.0 mm
05:32 14.3 °C 13.3 °C 1015.1 hPa Calm     94 % 0.0 mm
05:37 14.2 °C 13.2 °C 1015.1 hPa Calm     94 % 0.0 mm
05:42 14.2 °C 13.2 °C 1015.1 hPa Calm     94 % 0.0 mm
05:47 14.1 °C 13.1 °C 1015.1 hPa Calm     94 % 0.0 mm
05:52 14.1 °C 13.1 °C 1015.1 hPa Calm     94 % 0.0 mm
05:57 14.1 °C 13.1 °C 1015.1 hPa Calm     94 % 0.0 mm
06:02 14.2 °C 13.2 °C 1015.5 hPa Calm     94 % 0.0 mm
06:07 14.3 °C 13.3 °C 1015.1 hPa Calm     94 % 0.0 mm
06:12 14.4 °C 13.3 °C 1015.1 hPa Calm     93 % 0.0 mm
06:17 14.6 °C 13.3 °C 1015.1 hPa Calm     92 % 0.0 mm
06:22 14.6 °C 13.1 °C 1015.1 hPa Calm     91 % 0.0 mm
06:27 14.7 °C 13.2 °C 1015.1 hPa Calm     91 % 0.0 mm
06:32 14.7 °C 13.2 °C 1015.1 hPa Calm     91 % 0.0 mm
06:37 14.7 °C 13.2 °C 1015.5 hPa Calm     91 % 0.0 mm
06:42 14.7 °C 13.2 °C 1015.5 hPa Calm     91 % 0.0 mm
06:47 14.7 °C 13.2 °C 1015.5 hPa Calm     91 % 0.0 mm
06:52 14.7 °C 13.2 °C 1015.1 hPa Calm     91 % 0.0 mm
06:57 14.7 °C 13.2 °C 1015.5 hPa Calm     91 % 0.0 mm
07:02 14.7 °C 13.2 °C 1015.5 hPa Calm     91 % 0.0 mm
07:12 14.7 °C 13.1 °C 1015.5 hPa Calm   1.6 km/h 90 % 0.0 mm
07:17 14.8 °C 13.2 °C 1015.5 hPa Calm     90 % 0.0 mm
07:22 14.8 °C 13.2 °C 1015.5 hPa Calm     90 % 0.0 mm
07:32 14.9 °C 13.1 °C 1015.5 hPa Calm     89 % 0.0 mm
07:37 14.9 °C 13.1 °C 1015.5 hPa Calm     89 % 0.0 mm
07:42 15.0 °C 13.0 °C 1015.5 hPa Calm     88 % 0.0 mm
07:47 15.1 °C 13.1 °C 1015.5 hPa Calm     88 % 0.0 mm
07:57 15.2 °C 13.2 °C 1015.8 hPa Calm     88 % 0.0 mm
08:02 15.3 °C 13.1 °C 1015.8 hPa Calm     87 % 0.0 mm
08:07 15.3 °C 13.1 °C 1015.8 hPa Calm     87 % 0.0 mm
08:12 15.4 °C 13.1 °C 1015.8 hPa Calm     86 % 0.0 mm
08:17 15.5 °C 13.0 °C 1015.8 hPa Calm     85 % 0.0 mm
08:27 15.6 °C 12.9 °C 1015.5 hPa Calm     84 % 0.0 mm
08:32 15.7 °C 13.0 °C 1015.8 hPa Calm     84 % 0.0 mm
08:37 15.9 °C 13.2 °C 1015.8 hPa Calm     84 % 0.0 mm
08:42 16.1 °C 13.0 °C 1015.8 hPa Calm     82 % 0.0 mm
08:47 16.1 °C 13.0 °C 1016.1 hPa Calm     82 % 0.0 mm
08:57 16.3 °C 13.0 °C 1015.8 hPa Calm     81 % 0.0 mm
09:02 16.3 °C 13.0 °C 1015.8 hPa Calm     81 % 0.0 mm
09:12 16.2 °C 12.7 °C 1016.1 hPa Calm     80 % 0.0 mm
09:17 16.2 °C 12.7 °C 1016.1 hPa Calm     80 % 0.0 mm
09:22 16.3 °C 12.8 °C 1016.1 hPa Calm     80 % 0.0 mm
09:32 16.4 °C 12.7 °C 1016.1 hPa Calm     79 % 0.0 mm
09:37 16.6 °C 12.9 °C 1016.1 hPa Calm     79 % 0.0 mm
09:42 16.7 °C 12.8 °C 1016.1 hPa Calm     78 % 0.0 mm
09:47 16.9 °C 12.8 °C 1016.1 hPa Calm     77 % 0.0 mm
09:52 17.3 °C 13.4 °C 1016.1 hPa Calm     78 % 0.0 mm
09:57 17.9 °C 12.8 °C 1016.1 hPa Calm     72 % 0.0 mm
10:02 18.4 °C 13.0 °C 1016.1 hPa Calm     71 % 0.0 mm
10:07 18.8 °C 12.8 °C 1016.1 hPa Calm     68 % 0.0 mm
10:12 19.3 °C 12.6 °C 1016.1 hPa Calm     65 % 0.0 mm
10:17 19.7 °C 12.7 °C 1016.1 hPa Calm     64 % 0.0 mm
10:22 19.9 °C 11.9 °C 1015.8 hPa Calm     60 % 0.0 mm
10:27 19.9 °C 12.4 °C 1015.8 hPa Calm     62 % 0.0 mm
10:32 20.2 °C 12.2 °C 1015.8 hPa Calm     60 % 0.0 mm
10:37 20.4 °C 12.4 °C 1015.8 hPa Calm     60 % 0.0 mm
10:42 20.8 °C 12.5 °C 1015.8 hPa Calm     59 % 0.0 mm
10:47 20.6 °C 12.0 °C 1015.8 hPa West 1.6 km/h   58 % 0.0 mm
10:52 20.5 °C 13.0 °C 1015.8 hPa WSW 1.6 km/h 9.7 km/h 62 % 0.0 mm
10:57 20.8 °C 12.7 °C 1015.8 hPa WSW 1.6 km/h 9.7 km/h 60 % 0.0 mm
11:02 20.5 °C 12.2 °C 1015.8 hPa Calm   8.0 km/h 59 % 0.0 mm
11:07 20.7 °C 12.1 °C 1015.8 hPa WSW 1.6 km/h 8.0 km/h 58 % 0.0 mm
11:12 20.9 °C 12.6 °C 1015.5 hPa SW 3.2 km/h 8.0 km/h 59 % 0.0 mm
11:17 21.3 °C 12.7 °C 1015.5 hPa WSW 4.8 km/h 8.0 km/h 58 % 0.0 mm
11:22 20.7 °C 11.9 °C 1015.8 hPa Calm   6.4 km/h 57 % 0.0 mm
11:27 20.4 °C 12.1 °C 1015.8 hPa WSW 6.4 km/h 6.4 km/h 59 % 0.0 mm
11:32 20.4 °C 12.1 °C 1015.5 hPa Calm   6.4 km/h 59 % 0.0 mm
11:37 20.9 °C 12.3 °C 1015.5 hPa Calm   6.4 km/h 58 % 0.0 mm
11:42 21.3 °C 12.2 °C 1015.8 hPa West 1.6 km/h 8.0 km/h 56 % 0.0 mm
11:47 21.5 °C 11.8 °C 1015.5 hPa NW 1.6 km/h 8.0 km/h 54 % 0.0 mm
11:57 21.6 °C 11.9 °C 1015.5 hPa Calm   11.3 km/h 54 % 0.0 mm
12:02 21.6 °C 12.2 °C 1015.5 hPa West 4.8 km/h 11.3 km/h 55 % 0.0 mm
12:07 21.9 °C 12.5 °C 1015.5 hPa Calm   11.3 km/h 55 % 0.0 mm
12:12 21.8 °C 11.8 °C 1015.5 hPa WNW 1.6 km/h 6.4 km/h 53 % 0.0 mm
12:17 21.6 °C 11.9 °C 1015.5 hPa Calm   6.4 km/h 54 % 0.0 mm
12:22 21.8 °C 11.8 °C 1015.5 hPa SW 11.3 km/h 11.3 km/h 53 % 0.0 mm
12:27 21.6 °C 11.9 °C 1015.5 hPa Calm   11.3 km/h 54 % 0.0 mm
12:32 21.8 °C 11.8 °C 1015.5 hPa WSW 3.2 km/h 11.3 km/h 53 % 0.0 mm
12:42 22.3 °C 12.0 °C 1015.5 hPa WSW 1.6 km/h 8.0 km/h 52 % 0.0 mm
12:47 22.9 °C 11.6 °C 1015.5 hPa South 4.8 km/h 9.7 km/h 49 % 0.0 mm
12:52 23.1 °C 11.5 °C 1015.5 hPa WSW 1.6 km/h 9.7 km/h 48 % 0.0 mm
12:57 23.1 °C 11.5 °C 1015.1 hPa Calm   9.7 km/h 48 % 0.0 mm
13:02 23.4 °C 12.1 °C 1015.5 hPa WSW 4.8 km/h 9.7 km/h 49 % 0.0 mm
13:07 23.1 °C 12.1 °C 1015.5 hPa West 1.6 km/h 9.7 km/h 50 % 0.0 mm
13:12 23.2 °C 11.3 °C 1015.5 hPa SSE 4.8 km/h 9.7 km/h 47 % 0.0 mm
13:17 23.3 °C 11.0 °C 1015.1 hPa SSW 4.8 km/h 9.7 km/h 46 % 0.0 mm
13:27 22.5 °C 11.3 °C 1015.1 hPa WSW 1.6 km/h 14.5 km/h 49 % 0.0 mm
13:32 23.2 °C 11.6 °C 1015.1 hPa WSW 1.6 km/h 12.9 km/h 48 % 0.0 mm
13:37 23.2 °C 11.3 °C 1015.1 hPa Calm   12.9 km/h 47 % 0.0 mm
13:42 22.6 °C 11.0 °C 1015.1 hPa Calm   12.9 km/h 48 % 0.0 mm
13:47 22.3 °C 10.4 °C 1015.1 hPa Calm   12.9 km/h 47 % 0.0 mm
13:52 22.7 °C 11.4 °C 1015.1 hPa WNW 1.6 km/h 12.9 km/h 49 % 0.0 mm
13:57 23.5 °C 11.9 °C 1015.1 hPa WSW 3.2 km/h 9.7 km/h 48 % 0.0 mm
14:02 24.0 °C 11.3 °C 1014.8 hPa Calm   9.7 km/h 45 % 0.0 mm
14:07 24.3 °C 11.9 °C 1014.8 hPa Calm   8.0 km/h 46 % 0.0 mm
14:12 24.4 °C 10.7 °C 1014.8 hPa WSW 3.2 km/h 8.0 km/h 42 % 0.0 mm
14:17 23.8 °C 10.1 °C 1014.8 hPa WSW 1.6 km/h 9.7 km/h 42 % 0.0 mm
14:22 23.3 °C 11.0 °C 1014.8 hPa SW 3.2 km/h 9.7 km/h 46 % 0.0 mm
14:27 22.9 °C 11.0 °C 1014.8 hPa WSW 3.2 km/h 9.7 km/h 47 % 0.0 mm
14:32 23.6 °C 11.3 °C 1014.8 hPa SSW 1.6 km/h 9.7 km/h 46 % 0.0 mm
14:37 24.2 °C 12.5 °C 1014.8 hPa WSW 1.6 km/h 9.7 km/h 48 % 0.0 mm
14:42 23.9 °C 10.6 °C 1014.8 hPa Calm   9.7 km/h 43 % 0.0 mm
14:47 23.7 °C 11.4 °C 1014.8 hPa West 3.2 km/h 8.0 km/h 46 % 0.0 mm
14:52 24.1 °C 11.4 °C 1014.4 hPa WSW 4.8 km/h 12.9 km/h 45 % 0.0 mm
14:57 24.7 °C 11.6 °C 1014.4 hPa Calm   12.9 km/h 44 % 0.0 mm
15:02 24.6 °C 10.8 °C 1014.4 hPa WSW 1.6 km/h 12.9 km/h 42 % 0.0 mm
15:07 24.1 °C 11.1 °C 1014.4 hPa West 1.6 km/h 9.7 km/h 44 % 0.0 mm
15:12 23.8 °C 10.5 °C 1014.4 hPa SW 1.6 km/h 9.7 km/h 43 % 0.0 mm
15:17 23.6 °C 10.6 °C 1014.4 hPa WSW 3.2 km/h 9.7 km/h 44 % 0.0 mm
15:22 23.3 °C 11.0 °C 1014.4 hPa WSW 1.6 km/h 8.0 km/h 46 % 0.0 mm
15:32 23.4 °C 10.8 °C 1014.4 hPa WSW 1.6 km/h 9.7 km/h 45 % 0.0 mm
15:37 23.1 °C 10.8 °C 1014.4 hPa Calm   9.7 km/h 46 % 0.0 mm
15:42 23.2 °C 11.3 °C 1014.4 hPa West 1.6 km/h 6.4 km/h 47 % 0.0 mm
15:47 23.3 °C 10.4 °C 1014.4 hPa Calm   4.8 km/h 44 % 0.0 mm
15:52 23.4 °C 11.1 °C 1014.1 hPa Calm   6.4 km/h 46 % 0.0 mm
15:57 23.6 °C 10.6 °C 1014.1 hPa West 1.6 km/h 6.4 km/h 44 % 0.0 mm
16:02 23.9 °C 11.2 °C 1014.1 hPa SW 3.2 km/h 8.0 km/h 45 % 0.0 mm
16:07 23.9 °C 10.2 °C 1014.1 hPa West 1.6 km/h 9.7 km/h 42 % 0.0 mm
16:12 23.6 °C 10.3 °C 1014.1 hPa West 4.8 km/h 9.7 km/h 43 % 0.0 mm
16:17 23.3 °C 10.4 °C 1014.1 hPa West 1.6 km/h 9.7 km/h 44 % 0.0 mm
16:22 23.4 °C 11.1 °C 1014.1 hPa SSW 4.8 km/h 8.0 km/h 46 % 0.0 mm
16:27 23.6 °C 11.6 °C 1014.1 hPa Calm   8.0 km/h 47 % 0.0 mm
16:32 23.9 °C 10.9 °C 1014.1 hPa WSW 3.2 km/h 8.0 km/h 44 % 0.0 mm
16:37 23.7 °C 10.4 °C 1014.1 hPa Calm   8.0 km/h 43 % 0.0 mm
16:42 23.5 °C 10.9 °C 1014.1 hPa West 4.8 km/h 8.0 km/h 45 % 0.0 mm
16:47 23.4 °C 10.8 °C 1014.1 hPa WSW 6.4 km/h 9.7 km/h 45 % 0.0 mm
16:52 23.3 °C 10.7 °C 1013.8 hPa Calm   9.7 km/h 45 % 0.0 mm
16:57 23.4 °C 10.8 °C 1014.1 hPa WSW 8.0 km/h 9.7 km/h 45 % 0.0 mm
17:02 23.7 °C 11.1 °C 1013.8 hPa WNW 1.6 km/h 11.3 km/h 45 % 0.0 mm
17:07 24.3 °C 10.9 °C 1013.8 hPa WSW 1.6 km/h 11.3 km/h 43 % 0.0 mm
17:12 24.7 °C 11.6 °C 1013.8 hPa WSW 4.8 km/h 11.3 km/h 44 % 0.0 mm
17:17 24.8 °C 10.7 °C 1013.8 hPa West 8.0 km/h 11.3 km/h 41 % 0.0 mm
17:22 24.4 °C 9.9 °C 1013.8 hPa SW 6.4 km/h 11.3 km/h 40 % 0.0 mm
17:27 23.7 °C 10.4 °C 1013.8 hPa Calm   11.3 km/h 43 % 0.0 mm
17:32 24.1 °C 11.4 °C 1013.8 hPa WSW 3.2 km/h 11.3 km/h 45 % 0.0 mm
17:37 24.7 °C 11.3 °C 1013.8 hPa West 1.6 km/h 9.7 km/h 43 % 0.0 mm
17:42 24.3 °C 10.6 °C 1013.8 hPa Calm   8.0 km/h 42 % 0.0 mm
17:47 23.7 °C 10.7 °C 1013.8 hPa WSW 9.7 km/h 9.7 km/h 44 % 0.0 mm
17:52 23.2 °C 10.9 °C 1013.8 hPa SW 3.2 km/h 9.7 km/h 46 % 0.0 mm
17:57 22.9 °C 11.0 °C 1013.8 hPa SW 9.7 km/h 9.7 km/h 47 % 0.0 mm
18:02 22.8 °C 10.9 °C 1013.8 hPa SW 4.8 km/h 11.3 km/h 47 % 0.0 mm
18:07 22.9 °C 11.0 °C 1013.8 hPa SW 3.2 km/h 11.3 km/h 47 % 0.0 mm
18:12 23.3 °C 11.7 °C 1013.8 hPa ESE 4.8 km/h 11.3 km/h 48 % 0.0 mm
18:17 23.3 °C 11.4 °C 1013.8 hPa North 3.2 km/h 9.7 km/h 47 % 0.0 mm
18:22 22.9 °C 11.0 °C 1013.8 hPa SW 3.2 km/h 9.7 km/h 47 % 0.0 mm
18:27 22.7 °C 11.1 °C 1013.8 hPa WSW 3.2 km/h 9.7 km/h 48 % 0.0 mm
18:32 22.6 °C 11.3 °C 1013.4 hPa WSW 1.6 km/h 9.7 km/h 49 % 0.0 mm
18:42 22.4 °C 11.2 °C 1013.8 hPa Calm   9.7 km/h 49 % 0.0 mm
18:47 22.1 °C 11.5 °C 1013.8 hPa NE 1.6 km/h 9.7 km/h 51 % 0.0 mm
18:52 21.7 °C 12.0 °C 1013.8 hPa Calm   9.7 km/h 54 % 0.0 mm
18:57 21.8 °C 12.4 °C 1013.8 hPa WNW 1.6 km/h 9.7 km/h 55 % 0.0 mm
19:02 22.1 °C 11.8 °C 1013.8 hPa ENE 6.4 km/h 6.4 km/h 52 % 0.0 mm
19:07 22.0 °C 11.7 °C 1013.8 hPa NE 3.2 km/h 9.7 km/h 52 % 0.0 mm
19:12 21.8 °C 11.5 °C 1013.8 hPa Calm   9.7 km/h 52 % 0.0 mm
19:17 21.4 °C 11.7 °C 1013.8 hPa Calm   9.7 km/h 54 % 0.0 mm
19:22 20.8 °C 12.0 °C 1014.1 hPa Calm   8.0 km/h 57 % 0.0 mm
19:27 20.6 °C 11.8 °C 1014.1 hPa Calm   8.0 km/h 57 % 0.0 mm
19:32 20.3 °C 12.3 °C 1014.1 hPa Calm   4.8 km/h 60 % 0.0 mm
19:37 20.1 °C 12.3 °C 1014.4 hPa Calm   4.8 km/h 61 % 0.0 mm
19:42 19.5 °C 12.7 °C 1014.8 hPa WSW 6.4 km/h 8.0 km/h 65 % 0.0 mm
19:47 18.0 °C 13.9 °C 1015.1 hPa WSW 6.4 km/h 22.5 km/h 77 % 0.0 mm
19:52 16.8 °C 13.7 °C 1015.1 hPa SW 1.6 km/h 22.5 km/h 82 % 1.5 mm
19:57 16.2 °C 13.7 °C 1015.1 hPa Calm   22.5 km/h 85 % 2.3 mm
20:02 15.9 °C 13.6 °C 1014.8 hPa Calm   14.5 km/h 86 % 2.5 mm
20:07 15.8 °C 13.6 °C 1014.8 hPa Calm   6.4 km/h 87 % 2.5 mm
20:12 15.7 °C 13.5 °C 1014.8 hPa Calm   1.6 km/h 87 % 2.5 mm
20:17 15.7 °C 13.9 °C 1014.8 hPa Calm     89 % 2.5 mm
20:22 15.6 °C 13.8 °C 1014.8 hPa Calm     89 % 2.5 mm
20:27 15.6 °C 13.8 °C 1014.8 hPa Calm     89 % 2.5 mm
20:32 15.6 °C 14.0 °C 1014.8 hPa Calm   1.6 km/h 90 % 2.5 mm
20:37 15.7 °C 14.1 °C 1014.8 hPa Calm   1.6 km/h 90 % 2.5 mm
20:42 15.7 °C 14.1 °C 1014.8 hPa Calm   1.6 km/h 90 % 2.5 mm
20:47 15.7 °C 14.1 °C 1014.8 hPa Calm   1.6 km/h 90 % 2.3 mm
20:52 15.7 °C 14.1 °C 1014.8 hPa Calm   3.2 km/h 90 % 0.3 mm
20:57 15.6 °C 14.1 °C 1014.8 hPa Calm   3.2 km/h 91 % 0.3 mm
21:02 15.6 °C 14.1 °C 1014.8 hPa Calm   3.2 km/h 91 % 0.0 mm
21:07 15.6 °C 14.1 °C 1014.8 hPa Calm   1.6 km/h 91 % 0.0 mm
21:12 15.6 °C 14.1 °C 1014.8 hPa Calm   1.6 km/h 91 % 0.0 mm
21:17 15.4 °C 13.9 °C 1014.4 hPa Calm     91 % 0.0 mm
21:22 15.4 °C 14.1 °C 1014.8 hPa Calm     92 % 0.0 mm
21:27 15.4 °C 14.1 °C 1014.4 hPa Calm     92 % 0.0 mm
21:32 15.4 °C 14.1 °C 1014.8 hPa Calm     92 % 0.0 mm
21:37 15.4 °C 14.1 °C 1014.4 hPa Calm     92 % 0.0 mm
21:47 15.6 °C 14.5 °C 1014.4 hPa Calm     93 % 0.0 mm
21:57 15.7 °C 14.7 °C 1014.8 hPa Calm   1.6 km/h 94 % 0.0 mm
22:02 15.6 °C 14.6 °C 1014.8 hPa Calm   1.6 km/h 94 % 0.0 mm
22:07 15.5 °C 14.4 °C 1014.8 hPa Calm     93 % 0.0 mm
22:12 15.3 °C 14.2 °C 1014.8 hPa Calm     93 % 0.0 mm
22:17 15.3 °C 14.2 °C 1014.8 hPa Calm     93 % 0.0 mm
22:22 15.1 °C 14.0 °C 1014.8 hPa Calm     93 % 0.0 mm
22:27 15.1 °C 14.1 °C 1014.8 hPa Calm     94 % 0.0 mm
22:32 15.1 °C 14.1 °C 1015.1 hPa Calm   1.6 km/h 94 % 0.0 mm
22:37 15.2 °C 14.2 °C 1015.1 hPa WSW 1.6 km/h 1.6 km/h 94 % 0.0 mm
22:42 15.2 °C 14.2 °C 1015.5 hPa Calm   6.4 km/h 94 % 0.0 mm
22:47 15.2 °C 14.1 °C 1015.5 hPa SW 1.6 km/h 6.4 km/h 93 % 0.0 mm
22:52 15.2 °C 14.1 °C 1015.5 hPa SW 3.2 km/h 6.4 km/h 93 % 0.0 mm
22:57 15.2 °C 14.1 °C 1015.5 hPa Calm   6.4 km/h 93 % 0.0 mm
23:02 15.2 °C 14.1 °C 1015.8 hPa WSW 3.2 km/h 6.4 km/h 93 % 0.0 mm
23:07 15.3 °C 14.2 °C 1015.8 hPa Calm   6.4 km/h 93 % 0.0 mm
23:17 15.3 °C 14.2 °C 1015.8 hPa SW 4.8 km/h 8.0 km/h 93 % 0.0 mm
23:22 15.2 °C 13.9 °C 1015.8 hPa WSW 1.6 km/h 8.0 km/h 92 % 0.0 mm
23:27 15.2 °C 13.9 °C 1015.8 hPa WSW 3.2 km/h 11.3 km/h 92 % 0.0 mm
23:32 15.2 °C 13.9 °C 1015.8 hPa West 3.2 km/h 11.3 km/h 92 % 0.0 mm
23:37 15.2 °C 14.1 °C 1015.8 hPa Calm   11.3 km/h 93 % 0.0 mm
23:42 15.1 °C 14.0 °C 1015.8 hPa WSW 3.2 km/h 6.4 km/h 93 % 0.0 mm
23:47 15.0 °C 13.7 °C 1015.8 hPa Calm   3.2 km/h 92 % 0.0 mm
23:52 14.9 °C 13.6 °C 1015.5 hPa Calm   3.2 km/h 92 % 0.0 mm
23:57 14.8 °C 13.5 °C 1015.5 hPa SSE 1.6 km/h 3.2 km/h 92 % 0.0 mm
Meteo18
Compliments of Weather Underground - 4 mb

Script developed by  Jim McMurry - jmcmurry@mwt.net Adapted for the template by  Wim van der Kuil - Leuven-Template.eu

You find our weather info also at:

European Weather Network

Weather Underground

Equipment we use:

Weather-station
Davis Vue

Weather-program
Meteohub

Weather-server
Raspberry PI 2 B+

Provider
1 and 1

Davis Vue

Meteohub

Raspberry PI 2 B+

1 and 1